createdAt,value
2017-04-03T00:00:49.108Z,86.18
2017-04-03T00:01:49.102Z,86.36
2017-04-03T00:02:49.093Z,86.27
2017-04-03T00:03:49.084Z,86.84
2017-04-03T00:04:49.080Z,86.84
2017-04-03T00:05:49.071Z,86.46
2017-04-03T00:06:49.062Z,86.94
2017-04-03T00:07:49.053Z,86.84
2017-04-03T00:08:49.044Z,87.03
2017-04-03T00:09:49.037Z,87.18
2017-04-03T00:10:49.028Z,87.56
2017-04-03T00:11:49.023Z,87.7
2017-04-03T00:12:49.019Z,87.27
2017-04-03T00:13:49.006Z,87.51
2017-04-03T00:14:48.996Z,87.46
2017-04-03T00:15:48.990Z,87.56
2017-04-03T00:16:48.981Z,87.65
2017-04-03T00:17:48.975Z,88.13
2017-04-03T00:18:48.964Z,88.04
2017-04-03T00:19:48.956Z,88.13
2017-04-03T00:20:48.951Z,88.6
2017-04-03T00:21:48.636Z,88.6
2017-04-03T00:22:48.932Z,88.6
2017-04-03T00:23:48.923Z,88.42
2017-04-03T00:24:48.916Z,88.04
2017-04-03T00:25:48.908Z,89.08
2017-04-03T00:26:48.899Z,88.6
2017-04-03T00:27:48.889Z,88.7
2017-04-03T00:28:48.881Z,88.6
2017-04-03T00:29:48.874Z,88.6
2017-04-03T00:30:48.866Z,89.18
2017-04-03T00:31:48.857Z,89.27
2017-04-03T00:32:48.849Z,89.18
2017-04-03T00:33:48.841Z,88.99
2017-04-03T00:34:48.868Z,89.56
2017-04-03T00:35:48.824Z,89.47
2017-04-03T00:36:48.859Z,89.65
2017-04-03T00:37:48.804Z,89.56
2017-04-03T00:38:48.799Z,89.47
2017-04-03T00:39:48.792Z,89.32
2017-04-03T00:40:48.781Z,89.51
2017-04-03T00:41:48.774Z,90.18
2017-04-03T00:42:48.765Z,90.18
2017-04-03T00:43:48.755Z,90.42
2017-04-03T00:44:48.749Z,89.99
2017-04-03T00:45:48.738Z,89.99
2017-04-03T00:46:48.730Z,90.08
2017-04-03T00:47:48.723Z,90.56
2017-04-03T00:48:48.712Z,90.28
2017-04-03T00:49:48.705Z,90.18
2017-04-03T00:50:48.696Z,91.13
2017-04-03T00:51:48.687Z,90.18
2017-04-03T00:52:48.678Z,90.47
2017-04-03T00:53:48.365Z,90.37
2017-04-03T00:54:48.660Z,89.89
2017-04-03T00:55:48.656Z,90.84
2017-04-03T00:56:48.643Z,90.84
2017-04-03T00:57:48.635Z,90.75
2017-04-03T00:58:48.626Z,90.47
2017-04-03T00:59:48.619Z,90.75
2017-04-03T01:00:48.612Z,90.94
2017-04-03T01:01:48.600Z,90.84
2017-04-03T01:02:48.590Z,91.03
2017-04-03T01:03:48.582Z,90.94
2017-04-03T01:04:48.573Z,91.61
2017-04-03T01:05:48.564Z,90.94
2017-04-03T01:06:48.599Z,91.61
2017-04-03T01:07:48.546Z,91.51
2017-04-03T01:08:48.541Z,91.7
2017-04-03T01:09:48.529Z,91.22
2017-04-03T01:10:48.521Z,91.61
2017-04-03T01:11:48.513Z,91.61
2017-04-03T01:12:48.202Z,91.42
2017-04-03T01:13:48.191Z,91.61
2017-04-03T01:14:48.486Z,92.08
2017-04-03T01:15:48.479Z,91.8
2017-04-03T01:16:48.165Z,91.99
2017-04-03T01:17:48.459Z,92.08
2017-04-03T01:18:48.452Z,92.27
2017-04-03T01:19:48.443Z,92.18
2017-04-03T01:20:48.472Z,92.18
2017-04-03T01:21:48.424Z,92.27
2017-04-03T01:22:48.415Z,92.27
2017-04-03T01:23:48.406Z,92.27
2017-04-03T01:24:48.398Z,91.89
2017-04-03T01:25:48.390Z,92.27
2017-04-03T01:26:48.380Z,92.27
2017-04-03T01:27:48.371Z,91.99
2017-04-03T01:28:48.362Z,92.18
2017-04-03T01:29:48.354Z,92.08
2017-04-03T01:30:48.345Z,92.08
2017-04-03T01:31:48.334Z,91.89
2017-04-03T01:32:48.326Z,91.99
2017-04-03T01:33:48.317Z,92.27
2017-04-03T01:34:48.307Z,91.99
2017-04-03T01:35:48.299Z,91.99
2017-04-03T01:36:48.291Z,92.27
2017-04-03T01:37:48.280Z,91.8
2017-04-03T01:38:48.274Z,92.27
2017-04-03T01:39:48.265Z,92.18
2017-04-03T01:40:48.254Z,92.27
2017-04-03T01:41:48.246Z,92.27
2017-04-03T01:42:48.241Z,92.08
2017-04-03T01:43:48.228Z,91.99
2017-04-03T01:44:48.227Z,92.36
2017-04-03T01:45:48.210Z,92.27
2017-04-03T01:46:48.202Z,92.08
2017-04-03T01:47:48.192Z,92.36
2017-04-03T01:48:48.184Z,92.84
2017-04-03T01:49:48.177Z,92.41
2017-04-03T01:50:48.165Z,92.7
2017-04-03T01:51:48.196Z,92.51
2017-04-03T01:52:48.148Z,92.61
2017-04-03T01:53:48.139Z,92.8
2017-04-03T01:54:48.130Z,92.32
2017-04-03T01:55:48.123Z,92.51
2017-04-03T01:56:48.111Z,92.61
2017-04-03T01:57:48.105Z,92.8
2017-04-03T01:58:48.093Z,92.51
2017-04-03T01:59:48.085Z,92.84
2017-04-03T02:00:48.077Z,92.84
2017-04-03T02:01:48.068Z,92.75
2017-04-03T02:02:48.059Z,92.75
2017-04-03T02:03:48.051Z,92.94
2017-04-03T02:04:48.040Z,92.65
2017-04-03T02:05:48.030Z,92.65
2017-04-03T02:06:48.023Z,92.46
2017-04-03T02:07:48.014Z,92.46
2017-04-03T02:08:48.004Z,92.08
2017-04-03T02:09:47.996Z,92.46
2017-04-03T02:10:47.987Z,92.65
2017-04-03T02:11:47.980Z,92.36
2017-04-03T02:12:47.969Z,92.36
2017-04-03T02:13:47.961Z,92.65
2017-04-03T02:14:47.951Z,92.75
2017-04-03T02:15:47.638Z,92.36
2017-04-03T02:16:47.932Z,92.65
2017-04-03T02:17:47.925Z,92.84
2017-04-03T02:18:47.916Z,92.46
2017-04-03T02:19:47.906Z,92.46
2017-04-03T02:20:47.898Z,92.75
2017-04-03T02:21:47.889Z,92.32
2017-04-03T02:22:47.576Z,92.61
2017-04-03T02:23:47.871Z,92.89
2017-04-03T02:24:47.861Z,92.41
2017-04-03T02:25:47.853Z,92.7
2017-04-03T02:26:47.843Z,92.89
2017-04-03T02:27:47.875Z,92.89
2017-04-03T02:28:47.829Z,93.27
2017-04-03T02:29:47.514Z,93.08
2017-04-03T02:30:47.807Z,93.08
2017-04-03T02:31:47.800Z,93.37
2017-04-03T02:32:47.791Z,93.7
2017-04-03T02:33:47.482Z,93.7
2017-04-03T02:34:47.780Z,93.79
2017-04-03T02:35:47.763Z,93.7
2017-04-03T02:36:47.754Z,93.7
2017-04-03T02:37:47.744Z,93.89
2017-04-03T02:38:47.736Z,93.41
2017-04-03T02:39:47.728Z,93.51
2017-04-03T02:40:47.723Z,93.32
2017-04-03T02:41:47.709Z,93.6
2017-04-03T02:42:47.701Z,93.04
2017-04-03T02:43:47.692Z,93.13
2017-04-03T02:44:47.684Z,93.23
2017-04-03T02:45:47.674Z,93.23
2017-04-03T02:46:47.664Z,93.13
2017-04-03T02:47:47.655Z,93.13
2017-04-03T02:48:47.647Z,93.13
2017-04-03T02:49:47.639Z,93.23
2017-04-03T02:50:47.630Z,93.13
2017-04-03T02:51:47.622Z,93.23
2017-04-03T02:52:47.613Z,93.32
2017-04-03T02:53:47.605Z,93.23
2017-04-03T02:54:47.596Z,93.32
2017-04-03T02:55:47.586Z,93.23
2017-04-03T02:56:47.577Z,93.23
2017-04-03T02:57:47.568Z,93.13
2017-04-03T02:58:47.598Z,92.79
2017-04-03T02:59:47.550Z,92.94
2017-04-03T03:00:47.541Z,92.6
2017-04-03T03:01:47.534Z,92.89
2017-04-03T03:02:47.523Z,92.99
2017-04-03T03:03:47.517Z,92.89
2017-04-03T03:04:47.513Z,92.6
2017-04-03T03:05:47.501Z,92.79
2017-04-03T03:06:47.490Z,92.89
2017-04-03T03:07:47.483Z,91.84
2017-04-03T03:08:47.474Z,92.32
2017-04-03T03:09:47.468Z,92.22
2017-04-03T03:10:47.456Z,92.22
2017-04-03T03:11:47.449Z,92.41
2017-04-03T03:12:47.440Z,91.46
2017-04-03T03:13:47.431Z,91.75
2017-04-03T03:14:47.421Z,91.27
2017-04-03T03:15:47.465Z,91.65
2017-04-03T03:16:47.405Z,91.46
2017-04-03T03:17:47.095Z,91.56
2017-04-03T03:18:47.389Z,91.84
2017-04-03T03:19:47.382Z,91.65
2017-04-03T03:20:47.370Z,91.32
2017-04-03T03:21:47.058Z,91.8
2017-04-03T03:22:47.352Z,92.27
2017-04-03T03:23:47.346Z,92.27
2017-04-03T03:24:47.335Z,92.36
2017-04-03T03:25:47.328Z,92.27
2017-04-03T03:26:47.320Z,92.18
2017-04-03T03:27:47.310Z,92.75
2017-04-03T03:28:47.300Z,92.18
2017-04-03T03:29:47.294Z,92.46
2017-04-03T03:30:47.285Z,92.94
2017-04-03T03:31:47.274Z,92.65
2017-04-03T03:32:47.268Z,92.84
2017-04-03T03:33:47.258Z,92.56
2017-04-03T03:34:47.248Z,92.94
2017-04-03T03:35:47.241Z,93.23
2017-04-03T03:36:47.230Z,93.13
2017-04-03T03:37:47.222Z,93.08
2017-04-03T03:38:47.215Z,92.99
2017-04-03T03:39:46.903Z,93.13
2017-04-03T03:40:46.901Z,93.46
2017-04-03T03:41:47.189Z,93.18
2017-04-03T03:42:47.180Z,93.65
2017-04-03T03:43:47.168Z,93.46
2017-04-03T03:44:47.161Z,93.37
2017-04-03T03:45:46.848Z,93.65
2017-04-03T03:46:46.839Z,93.94
2017-04-03T03:47:47.136Z,93.94
2017-04-03T03:48:46.822Z,93.65
2017-04-03T03:49:46.813Z,94.32
2017-04-03T03:50:47.106Z,94.22
2017-04-03T03:51:47.098Z,94.22
2017-04-03T03:52:47.089Z,94.79
2017-04-03T03:53:47.079Z,94.79
2017-04-03T03:54:46.767Z,94.89
2017-04-03T03:55:47.061Z,94.22
2017-04-03T03:56:47.052Z,94.42
2017-04-03T03:57:47.045Z,94.22
2017-04-03T03:58:47.033Z,94.42
2017-04-03T03:59:47.025Z,94.6
2017-04-03T04:00:46.717Z,94.6
2017-04-03T04:01:47.006Z,94.42
2017-04-03T04:02:46.693Z,94.6
2017-04-03T04:03:46.988Z,94.42
2017-04-03T04:04:46.675Z,94.7
2017-04-03T04:05:46.969Z,94.51
2017-04-03T04:06:46.960Z,94.7
2017-04-03T04:07:46.953Z,94.89
2017-04-03T04:08:46.638Z,94.6
2017-04-03T04:09:46.932Z,94.51
2017-04-03T04:10:46.620Z,94.51
2017-04-03T04:11:46.920Z,95.46
2017-04-03T04:12:46.601Z,95.46
2017-04-03T04:13:46.592Z,95.17
2017-04-03T04:14:46.889Z,95.27
2017-04-03T04:15:46.876Z,95.08
2017-04-03T04:16:46.868Z,95.46
2017-04-03T04:17:46.556Z,94.51
2017-04-03T04:18:46.852Z,95.46
2017-04-03T04:19:46.841Z,95.03
2017-04-03T04:20:46.832Z,94.89
2017-04-03T04:21:46.823Z,94.37
2017-04-03T04:22:46.815Z,94.7
2017-04-03T04:23:46.808Z,94.65
2017-04-03T04:24:46.797Z,94.7
2017-04-03T04:25:46.789Z,94.98
2017-04-03T04:26:46.779Z,94.56
2017-04-03T04:27:46.768Z,94.22
2017-04-03T04:28:46.767Z,94.7
2017-04-03T04:29:46.750Z,94.7
2017-04-03T04:30:46.741Z,94.27
2017-04-03T04:31:46.732Z,94.56
2017-04-03T04:32:46.726Z,94.03
2017-04-03T04:33:46.716Z,94.18
2017-04-03T04:34:46.708Z,94.13
2017-04-03T04:35:46.696Z,94.6
2017-04-03T04:36:46.686Z,94.22
2017-04-03T04:37:46.677Z,94.51
2017-04-03T04:38:46.667Z,94.42
2017-04-03T04:39:46.659Z,94.6
2017-04-03T04:40:46.651Z,94.13
2017-04-03T04:41:46.641Z,94.22
2017-04-03T04:42:46.631Z,94.6
2017-04-03T04:43:46.624Z,94.89
2017-04-03T04:44:46.613Z,94.22
2017-04-03T04:45:46.606Z,94.03
2017-04-03T04:46:46.597Z,94.51
2017-04-03T04:47:46.585Z,94.7
2017-04-03T04:48:46.575Z,94.98
2017-04-03T04:49:46.570Z,94.6
2017-04-03T04:50:46.559Z,94.51
2017-04-03T04:51:46.550Z,94.32
2017-04-03T04:52:46.537Z,94.32
2017-04-03T04:53:46.530Z,94.22
2017-04-03T04:54:46.521Z,94.51
2017-04-03T04:55:46.510Z,94.42
2017-04-03T04:56:46.502Z,94.42
2017-04-03T04:57:46.493Z,93.84
2017-04-03T04:58:46.485Z,94.13
2017-04-03T04:59:46.488Z,94.03
2017-04-03T05:00:46.164Z,94.03
2017-04-03T05:01:46.458Z,93.84
2017-04-03T05:02:46.448Z,93.46
2017-04-03T05:03:46.438Z,93.6
2017-04-03T05:04:46.441Z,93.55
2017-04-03T05:05:46.422Z,93.32
2017-04-03T05:06:46.410Z,93.23
2017-04-03T05:07:46.400Z,93.23
2017-04-03T05:08:46.392Z,93.13
2017-04-03T05:09:46.386Z,92.75
2017-04-03T05:10:46.374Z,93.13
2017-04-03T05:11:46.364Z,92.84
2017-04-03T05:12:46.360Z,92.56
2017-04-03T05:13:46.350Z,92.94
2017-04-03T05:14:46.339Z,92.46
2017-04-03T05:15:46.331Z,92.65
2017-04-03T05:16:46.323Z,92.84
2017-04-03T05:17:46.312Z,92.56
2017-04-03T05:18:46.304Z,92.84
2017-04-03T05:19:46.295Z,92.84
2017-04-03T05:20:46.288Z,92.84
2017-04-03T05:21:46.276Z,93.23
2017-04-03T05:22:46.267Z,92.84
2017-04-03T05:23:46.258Z,92.84
2017-04-03T05:24:46.250Z,92.46
2017-04-03T05:25:46.241Z,92.46
2017-04-03T05:26:46.234Z,92.84
2017-04-03T05:27:46.224Z,92.75
2017-04-03T05:28:46.215Z,92.36
2017-04-03T05:29:46.205Z,92.75
2017-04-03T05:30:46.196Z,92.94
2017-04-03T05:31:46.188Z,92.94
2017-04-03T05:32:46.177Z,92.65
2017-04-03T05:33:46.171Z,92.84
2017-04-03T05:34:46.166Z,92.94
2017-04-03T05:35:46.155Z,92.84
2017-04-03T05:36:46.144Z,92.84
2017-04-03T05:37:46.137Z,92.84
2017-04-03T05:38:46.127Z,92.84
2017-04-03T05:39:46.118Z,92.46
2017-04-03T05:40:46.109Z,92.65
2017-04-03T05:41:46.101Z,92.46
2017-04-03T05:42:46.091Z,92.27
2017-04-03T05:43:46.085Z,92.41
2017-04-03T05:44:46.077Z,92.89
2017-04-03T05:45:46.065Z,92.99
2017-04-03T05:46:46.057Z,93.18
2017-04-03T05:47:46.048Z,93.55
2017-04-03T05:48:45.736Z,93.08
2017-04-03T05:49:46.031Z,93.37
2017-04-03T05:50:46.020Z,93.55
2017-04-03T05:51:46.012Z,93.75
2017-04-03T05:52:46.004Z,93.46
2017-04-03T05:53:46.039Z,93.37
2017-04-03T05:54:45.985Z,93.46
2017-04-03T05:55:45.977Z,93.37
2017-04-03T05:56:45.969Z,93.46
2017-04-03T05:57:45.965Z,93.27
2017-04-03T05:58:45.952Z,93.84
2017-04-03T05:59:45.946Z,93.37
2017-04-03T06:00:45.935Z,93.37
2017-04-03T06:01:45.925Z,93.84
2017-04-03T06:02:45.915Z,94.03
2017-04-03T06:03:45.907Z,93.84
2017-04-03T06:04:45.900Z,93.75
2017-04-03T06:05:45.888Z,93.65
2017-04-03T06:06:45.888Z,93.65
2017-04-03T06:07:45.873Z,93.41
2017-04-03T06:08:45.863Z,93.89
2017-04-03T06:09:45.853Z,93.13
2017-04-03T06:10:45.847Z,92.75
2017-04-03T06:11:45.837Z,92.46
2017-04-03T06:12:45.828Z,92.08
2017-04-03T06:13:45.821Z,90.94
2017-04-03T06:14:45.814Z,90.84
2017-04-03T06:15:45.804Z,90.75
2017-04-03T06:16:45.794Z,90.75
2017-04-03T06:17:45.487Z,90.89
2017-04-03T06:18:45.776Z,91.17
2017-04-03T06:19:45.769Z,90.13
2017-04-03T06:20:45.759Z,89.65
2017-04-03T06:21:45.755Z,89.18
2017-04-03T06:22:45.443Z,88.99
2017-04-03T06:23:45.735Z,89.18
2017-04-03T06:24:45.730Z,88.42
2017-04-03T06:25:45.719Z,88.65
2017-04-03T06:26:45.712Z,88.65
2017-04-03T06:27:45.709Z,88.46
2017-04-03T06:28:45.697Z,88.65
2017-04-03T06:29:45.687Z,87.89
2017-04-03T06:30:45.677Z,86.79
2017-04-03T06:31:45.672Z,84.6
2017-04-03T06:32:45.664Z,84.79
2017-04-03T06:33:45.657Z,84.6
2017-04-03T06:34:45.649Z,84.79
2017-04-03T06:35:45.892Z,84.07
2017-04-03T06:36:45.634Z,83.21
2017-04-03T06:37:45.626Z,83.31
2017-04-03T06:38:45.621Z,83.12
2017-04-03T06:39:45.615Z,82.17
2017-04-03T06:40:45.606Z,81.59
2017-04-03T06:41:45.604Z,81.3
2017-04-03T06:42:45.591Z,80.54
2017-04-03T06:43:45.588Z,80.83
2017-04-03T06:44:45.579Z,80.58
2017-04-03T06:45:45.572Z,80.77
2017-04-03T06:46:45.565Z,80.01
2017-04-03T06:47:45.559Z,79.44
2017-04-03T06:48:45.552Z,78.39
2017-04-03T06:49:45.544Z,79.25
2017-04-03T06:50:45.539Z,79.35
2017-04-03T06:51:45.530Z,78.67
2017-04-03T06:52:45.526Z,77.82
2017-04-03T06:53:45.517Z,77.72
2017-04-03T06:54:45.514Z,78.1
2017-04-03T06:55:45.510Z,78.77
2017-04-03T06:56:45.501Z,78.39
2017-04-03T06:57:45.493Z,77.72
2017-04-03T06:58:45.488Z,77.15
2017-04-03T06:59:45.483Z,76.81
2017-04-03T07:00:45.477Z,75.76
2017-04-03T07:01:45.468Z,75.85
2017-04-03T07:02:45.464Z,76.14
2017-04-03T07:03:45.455Z,76.04
2017-04-03T07:04:45.451Z,74.99
2017-04-03T07:05:45.443Z,74.99
2017-04-03T07:06:45.439Z,73.94
2017-04-03T07:07:45.433Z,73.08
2017-04-03T07:08:45.426Z,73.18
2017-04-03T07:09:45.421Z,72.89
2017-04-03T07:10:45.415Z,72.89
2017-04-03T07:11:45.409Z,73.08
2017-04-03T07:12:45.405Z,73.75
2017-04-03T07:13:45.397Z,74.04
2017-04-03T07:14:45.393Z,74.48
2017-04-03T07:15:45.384Z,74.32
2017-04-03T07:16:45.381Z,73.56
2017-04-03T07:17:45.373Z,73.94
2017-04-03T07:18:45.366Z,73.28
2017-04-03T07:19:45.362Z,73.37
2017-04-03T07:20:45.355Z,73.75
2017-04-03T07:21:45.351Z,72.8
2017-04-03T07:22:45.343Z,70.73
2017-04-03T07:23:45.339Z,70.83
2017-04-03T07:24:45.335Z,70.73
2017-04-03T07:25:45.327Z,69.68
2017-04-03T07:26:45.019Z,69.87
2017-04-03T07:27:45.318Z,70.64
2017-04-03T07:28:45.311Z,70.42
2017-04-03T07:29:45.307Z,70.79
2017-04-03T07:30:45.304Z,70.7
2017-04-03T07:31:45.299Z,71.08
2017-04-03T07:32:45.294Z,71.66
2017-04-03T07:33:45.285Z,71.27
2017-04-03T07:34:45.281Z,71.46
2017-04-03T07:35:45.292Z,71.56
2017-04-03T07:36:45.314Z,71.27
2017-04-03T07:37:45.265Z,70.61
2017-04-03T07:38:45.258Z,70.51
2017-04-03T07:39:45.255Z,70.7
2017-04-03T07:40:45.248Z,70.89
2017-04-03T07:41:45.243Z,70.13
2017-04-03T07:42:45.240Z,70.7
2017-04-03T07:43:45.231Z,70.61
2017-04-03T07:44:45.225Z,70.7
2017-04-03T07:45:45.220Z,70.42
2017-04-03T07:46:45.214Z,70.7
2017-04-03T07:47:45.209Z,70.7
2017-04-03T07:48:45.203Z,71.27
2017-04-03T07:49:45.201Z,70.51
2017-04-03T07:50:45.194Z,70.7
2017-04-03T07:51:45.186Z,70.51
2017-04-03T07:52:45.181Z,69.78
2017-04-03T07:53:45.179Z,70.54
2017-04-03T07:54:45.174Z,70.32
2017-04-03T07:55:45.167Z,69.87
2017-04-03T07:56:45.160Z,70.16
2017-04-03T07:57:45.156Z,69.68
2017-04-03T07:58:45.152Z,69.02
2017-04-03T07:59:45.145Z,69.31
2017-04-03T08:00:45.139Z,69.31
2017-04-03T08:01:45.141Z,68.82
2017-04-03T08:02:46.345Z,68.73
2017-04-03T08:03:45.123Z,68.82
2017-04-03T08:04:45.122Z,68.63
2017-04-03T08:05:45.115Z,68.73
2017-04-03T08:06:45.115Z,68.44
2017-04-03T08:07:45.104Z,67.87
2017-04-03T08:08:46.918Z,66.92
2017-04-03T08:09:46.306Z,67.11
2017-04-03T08:10:44.787Z,67.4
2017-04-03T08:11:45.083Z,67.3
2017-04-03T08:12:45.083Z,67.49
2017-04-03T08:13:45.073Z,66.85
2017-04-03T08:14:45.069Z,67.05
2017-04-03T08:15:45.066Z,65.9
2017-04-03T08:16:45.059Z,65.71
2017-04-03T08:17:45.054Z,65.26
2017-04-03T08:18:44.746Z,65.07
2017-04-03T08:19:45.046Z,64.88
2017-04-03T08:20:45.042Z,64.69
2017-04-03T08:21:45.036Z,64.5
2017-04-03T08:22:45.030Z,65.55
2017-04-03T08:23:45.028Z,65.68
2017-04-03T08:24:45.023Z,65.11
2017-04-03T08:25:45.018Z,63.86
2017-04-03T08:26:45.014Z,64.15
2017-04-03T08:27:45.009Z,62.84
2017-04-03T08:28:45.005Z,62.08
2017-04-03T08:29:45.002Z,62.08
2017-04-03T08:30:44.997Z,61.51
2017-04-03T08:32:44.988Z,59.59
2017-04-03T08:33:44.985Z,60.45
2017-04-03T08:34:44.982Z,60.45
2017-04-03T08:35:44.978Z,61.02
2017-04-03T08:36:45.015Z,62.04
2017-04-03T08:37:44.968Z,62.81
2017-04-03T08:38:44.968Z,62.87
2017-04-03T08:39:44.960Z,63.26
2017-04-03T08:40:44.957Z,63.35
2017-04-03T08:41:44.951Z,63.35
2017-04-03T08:42:44.949Z,63.39
2017-04-03T08:43:44.944Z,63.16
2017-04-03T08:44:44.941Z,63.67
2017-04-03T08:45:44.951Z,62.97
2017-04-03T08:46:44.930Z,63.1
2017-04-03T08:47:44.929Z,62.9
2017-04-03T08:48:44.926Z,63.07
2017-04-03T08:49:44.918Z,63.39
2017-04-03T08:50:44.918Z,63.54
2017-04-03T08:51:44.913Z,63.73
2017-04-03T08:52:44.914Z,63.57
2017-04-03T08:53:44.901Z,63.19
2017-04-03T08:54:44.900Z,63.19
2017-04-03T08:55:44.893Z,63
2017-04-03T08:56:44.894Z,62.81
2017-04-03T08:57:44.886Z,63.19
2017-04-03T08:58:44.880Z,63.35
2017-04-03T08:59:44.877Z,63.73
2017-04-03T09:00:44.871Z,64.31
2017-04-03T09:01:44.868Z,64.31
2017-04-03T09:02:44.861Z,63.83
2017-04-03T09:03:44.866Z,63.64
2017-04-03T09:04:44.858Z,63.73
2017-04-03T09:05:44.850Z,64.02
2017-04-03T09:06:44.844Z,64.59
2017-04-03T09:07:44.840Z,63.64
2017-04-03T09:08:44.836Z,63.93
2017-04-03T09:09:44.838Z,63.93
2017-04-03T09:10:44.530Z,63.93
2017-04-03T09:11:44.823Z,63.16
2017-04-03T09:12:44.818Z,63.35
2017-04-03T09:13:44.813Z,63.07
2017-04-03T09:14:44.811Z,63.45
2017-04-03T09:15:44.805Z,63.45
2017-04-03T09:16:44.801Z,63.64
2017-04-03T09:17:44.797Z,63.8
2017-04-03T09:18:44.792Z,63.7
2017-04-03T09:19:44.786Z,63.42
2017-04-03T09:20:44.782Z,64.18
2017-04-03T09:21:44.779Z,64.18
2017-04-03T09:22:44.772Z,64.37
2017-04-03T09:23:44.766Z,64.56
2017-04-03T09:24:44.763Z,63.51
2017-04-03T09:25:44.758Z,63.7
2017-04-03T09:26:44.752Z,63.35
2017-04-03T09:27:44.748Z,63.32
2017-04-03T09:28:44.744Z,63.42
2017-04-03T09:29:44.741Z,63.7
2017-04-03T09:30:44.733Z,63.32
2017-04-03T09:31:44.425Z,63.42
2017-04-03T09:32:44.730Z,63.13
2017-04-03T09:33:44.719Z,63.13
2017-04-03T09:34:44.715Z,63.51
2017-04-03T09:35:44.711Z,63.32
2017-04-03T09:36:44.706Z,63.23
2017-04-03T09:37:44.706Z,63.03
2017-04-03T09:38:44.697Z,63.13
2017-04-03T09:39:44.693Z,62.65
2017-04-03T09:40:44.685Z,62.65
2017-04-03T09:41:44.683Z,62.46
2017-04-03T09:42:44.376Z,63.03
2017-04-03T09:43:44.671Z,63.13
2017-04-03T09:44:44.672Z,62.94
2017-04-03T09:45:44.663Z,62.18
2017-04-03T09:46:44.661Z,63.13
2017-04-03T09:47:44.352Z,62.94
2017-04-03T09:48:44.655Z,63.16
2017-04-03T09:49:44.648Z,61.92
2017-04-03T09:50:44.642Z,61.16
2017-04-03T09:51:44.332Z,61.63
2017-04-03T09:52:44.330Z,61.06
2017-04-03T09:53:44.627Z,61.25
2017-04-03T09:54:44.628Z,61.44
2017-04-03T09:55:44.622Z,60.99
2017-04-03T09:56:44.617Z,60.96
2017-04-03T09:57:44.608Z,60.77
2017-04-03T09:58:44.604Z,60.96
2017-04-03T09:59:44.600Z,60.49
2017-04-03T10:00:44.595Z,60.13
2017-04-03T10:01:44.594Z,61.06
2017-04-03T10:02:44.587Z,61.35
2017-04-03T10:03:44.622Z,61.44
2017-04-03T10:04:44.577Z,60.77
2017-04-03T10:05:44.573Z,60.96
2017-04-03T10:06:44.264Z,60.68
2017-04-03T10:07:44.562Z,60.49
2017-04-03T10:08:44.560Z,60.87
2017-04-03T10:09:44.556Z,61.51
2017-04-03T10:10:44.550Z,61.6
2017-04-03T10:11:44.242Z,61.98
2017-04-03T10:12:44.542Z,61.98
2017-04-03T10:13:44.536Z,62.46
2017-04-03T10:14:44.533Z,62.37
2017-04-03T10:15:44.527Z,62.94
2017-04-03T10:16:44.524Z,62.84
2017-04-03T10:17:44.519Z,61.79
2017-04-03T10:18:44.515Z,61.98
2017-04-03T10:19:44.207Z,62.11
2017-04-03T10:20:44.507Z,61.92
2017-04-03T10:21:44.504Z,62.01
2017-04-03T10:22:44.497Z,61.44
2017-04-03T10:23:44.194Z,61.35
2017-04-03T10:24:44.487Z,61.72
2017-04-03T10:25:44.482Z,61.63
2017-04-03T10:26:44.480Z,61.44
2017-04-03T10:27:44.474Z,60.96
2017-04-03T10:28:44.469Z,60.77
2017-04-03T10:29:44.164Z,60.96
2017-04-03T10:30:44.461Z,61.06
2017-04-03T10:31:44.457Z,60.04
2017-04-03T10:32:44.452Z,60.04
2017-04-03T10:33:44.447Z,60.04
2017-04-03T10:34:44.442Z,59.84
2017-04-03T10:35:44.438Z,59.75
2017-04-03T10:36:44.433Z,58.8
2017-04-03T10:37:44.431Z,59.94
2017-04-03T10:38:44.426Z,59.84
2017-04-03T10:39:44.428Z,60.04
2017-04-03T10:40:44.417Z,59.94
2017-04-03T10:41:44.417Z,59.84
2017-04-03T10:42:44.410Z,59.56
2017-04-03T10:43:44.406Z,59.66
2017-04-03T10:44:44.402Z,59.47
2017-04-03T10:45:44.399Z,59.18
2017-04-03T10:46:44.394Z,59.75
2017-04-03T10:47:44.391Z,59.84
2017-04-03T10:48:44.386Z,58.73
2017-04-03T10:49:44.384Z,57.87
2017-04-03T10:50:44.377Z,57.68
2017-04-03T10:51:44.374Z,57.61
2017-04-03T10:52:44.372Z,55.51
2017-04-03T10:53:44.367Z,55.69
2017-04-03T10:54:44.361Z,55.79
2017-04-03T10:55:44.360Z,55.88
2017-04-03T10:56:44.358Z,55.02
2017-04-03T10:57:44.352Z,55.12
2017-04-03T10:58:44.348Z,55.69
2017-04-03T10:59:44.345Z,55.31
2017-04-03T11:00:44.344Z,54.67
2017-04-03T11:01:44.339Z,54.1
2017-04-03T11:02:44.340Z,54.48
2017-04-03T11:03:44.332Z,54.96
2017-04-03T11:04:44.328Z,54.77
2017-04-03T11:05:44.029Z,54.38
2017-04-03T11:06:44.682Z,54.19
2017-04-03T11:07:44.320Z,53.81
2017-04-03T11:08:44.317Z,53.81
2017-04-03T11:09:44.315Z,54.1
2017-04-03T11:10:44.312Z,54.1
2017-04-03T11:11:44.307Z,54
2017-04-03T11:12:44.305Z,53.97
2017-04-03T11:13:44.301Z,54.55
2017-04-03T11:14:44.298Z,55.51
2017-04-03T11:15:43.996Z,55.79
2017-04-03T11:16:44.291Z,55.86
2017-04-03T11:17:44.292Z,56.53
2017-04-03T11:18:44.286Z,57.48
2017-04-03T11:19:44.280Z,56.72
2017-04-03T11:20:44.279Z,56.72
2017-04-03T11:21:44.277Z,56.91
2017-04-03T11:22:44.269Z,57.87
2017-04-03T11:23:44.268Z,57.2
2017-04-03T11:24:44.264Z,56.72
2017-04-03T11:25:44.261Z,56.72
2017-04-03T11:26:44.257Z,56.53
2017-04-03T11:27:44.255Z,56.34
2017-04-03T11:28:44.251Z,57.01
2017-04-03T11:29:44.247Z,57.68
2017-04-03T11:30:44.244Z,57.58
2017-04-03T11:31:44.239Z,57.39
2017-04-03T11:32:44.237Z,57.1
2017-04-03T11:33:44.233Z,57.01
2017-04-03T11:34:44.229Z,57.48
2017-04-03T11:35:44.227Z,57.01
2017-04-03T11:36:43.919Z,57.48
2017-04-03T11:37:44.218Z,56.65
2017-04-03T11:38:44.217Z,55.88
2017-04-03T11:39:44.213Z,55.69
2017-04-03T11:40:44.208Z,55.98
2017-04-03T11:41:43.902Z,56.08
2017-04-03T11:42:44.200Z,55.6
2017-04-03T11:43:44.200Z,55.12
2017-04-03T11:44:44.195Z,54.38
2017-04-03T11:45:44.192Z,54
2017-04-03T11:46:44.186Z,54.1
2017-04-03T11:47:43.881Z,54.77
2017-04-03T11:48:44.178Z,55.31
2017-04-03T11:49:44.176Z,55.51
2017-04-03T11:50:44.172Z,56.17
2017-04-03T11:51:44.170Z,56.75
2017-04-03T11:52:44.166Z,56.27
2017-04-03T11:53:43.860Z,55.6
2017-04-03T11:54:44.159Z,55.69
2017-04-03T11:55:44.156Z,55.51
2017-04-03T11:56:44.152Z,55.79
2017-04-03T11:57:44.157Z,55.02
2017-04-03T11:58:44.145Z,54.38
2017-04-03T11:59:44.141Z,53.81
2017-04-03T12:00:44.138Z,53.4
2017-04-03T12:01:44.135Z,54.36
2017-04-03T12:02:44.131Z,55.12
2017-04-03T12:03:44.128Z,55.76
2017-04-03T12:04:44.123Z,55.96
2017-04-03T12:05:44.121Z,56.43
2017-04-03T12:06:44.116Z,57.58
2017-04-03T12:07:44.112Z,57.55
2017-04-03T12:08:44.107Z,57.75
2017-04-03T12:09:44.104Z,58.03
2017-04-03T12:10:44.138Z,58.03
2017-04-03T12:11:44.097Z,57.84
2017-04-03T12:12:44.094Z,58.03
2017-04-03T12:13:44.089Z,57.55
2017-04-03T12:14:44.086Z,57.2
2017-04-03T12:15:44.084Z,57.68
2017-04-03T12:16:44.077Z,56.82
2017-04-03T12:17:44.078Z,57.1
2017-04-03T12:18:43.767Z,56.53
2017-04-03T12:19:44.066Z,56.34
2017-04-03T12:20:44.063Z,56.72
2017-04-03T12:21:44.060Z,56.72
2017-04-03T12:22:44.054Z,56.72
2017-04-03T12:23:44.052Z,57.1
2017-04-03T12:24:43.745Z,57.39
2017-04-03T12:25:44.043Z,57.01
2017-04-03T12:26:44.038Z,56.72
2017-04-03T12:27:44.035Z,56.62
2017-04-03T12:28:44.030Z,57.48
2017-04-03T12:29:43.726Z,57.01
2017-04-03T12:30:43.720Z,57.75
2017-04-03T12:31:44.021Z,58.03
2017-04-03T12:32:44.015Z,58.22
2017-04-03T12:33:44.010Z,58.32
2017-04-03T12:34:44.008Z,58.8
2017-04-03T12:35:44.006Z,58.7
2017-04-03T12:36:44.000Z,58.7
2017-04-03T12:37:43.994Z,58.7
2017-04-03T12:38:43.990Z,58.61
2017-04-03T12:39:43.992Z,58.95
2017-04-03T12:40:43.981Z,59.91
2017-04-03T12:41:43.978Z,59.44
2017-04-03T12:42:44.018Z,59.63
2017-04-03T12:43:43.969Z,59.63
2017-04-03T12:44:43.964Z,59.15
2017-04-03T12:45:43.960Z,59.27
2017-04-03T12:46:43.956Z,59.24
2017-04-03T12:47:43.952Z,59.81
2017-04-03T12:48:43.946Z,59.72
2017-04-03T12:49:43.942Z,59.63
2017-04-03T12:50:43.939Z,59.53
2017-04-03T12:51:43.932Z,59.72
2017-04-03T12:52:43.928Z,60.1
2017-04-03T12:53:43.619Z,60.3
2017-04-03T12:54:43.620Z,60.2
2017-04-03T12:55:43.916Z,60.96
2017-04-03T12:56:43.910Z,60.93